Time;durP1;ratioP1;P1;durP2;ratioP2;P2;SDS_P1;SDS_P2;PMS_P1;PMS_P2;Temp;Humidity;BMP_temperature;BMP_pressure;BME280_temperature;BME280_humidity;BME280_pressure;Samples;Min_cycle;Max_cycle;Signal;HPM_P1;HPM_P2
2022/07/19 00:01:59;;;;;;;3.63;2.05;;;28.80;57.90;;;;;;6186136;23;20298;-75
2022/07/19 00:04:24;;;;;;;4.22;2.25;;;28.80;57.90;;;;;;6185856;23;20008;-76
2022/07/19 00:06:50;;;;;;;4.03;2.33;;;28.80;57.70;;;;;;6185905;23;19997;-75
2022/07/19 00:09:16;;;;;;;4.47;2.72;;;28.70;57.40;;;;;;6186521;23;20013;-75
2022/07/19 00:11:42;;;;;;;7.57;2.63;;;28.80;57.40;;;;;;6186553;23;20068;-75
2022/07/19 00:14:07;;;;;;;3.90;2.42;;;28.80;57.50;;;;;;6186304;23;20008;-75
2022/07/19 00:16:33;;;;;;;3.08;2.30;;;28.90;57.50;;;;;;6185990;23;20005;-75
2022/07/19 00:18:59;;;;;;;3.83;2.00;;;28.90;57.40;;;;;;6186381;23;20024;-75
2022/07/19 00:21:24;;;;;;;3.05;1.80;;;28.90;57.10;;;;;;6185794;23;20392;-75
2022/07/19 00:23:50;;;;;;;6.30;2.38;;;29.00;57.00;;;;;;6186336;23;20052;-74
2022/07/19 00:26:16;;;;;;;5.22;2.75;;;29.00;56.70;;;;;;6184633;23;19997;-75
2022/07/19 00:28:41;;;;;;;3.35;2.30;;;29.00;56.30;;;;;;6185512;23;20424;-75
2022/07/19 00:31:07;;;;;;;3.38;1.90;;;28.90;56.00;;;;;;6184721;23;20420;-75
2022/07/19 00:33:33;;;;;;;3.08;1.75;;;28.90;55.70;;;;;;6158936;23;20474;-75
2022/07/19 00:35:59;;;;;;;4.10;2.38;;;29.00;55.50;;;;;;6183470;23;20070;-75
2022/07/19 00:38:25;;;;;;;3.08;1.90;;;28.90;55.30;;;;;;6158976;23;20379;-75
2022/07/19 00:40:50;;;;;;;2.88;2.40;;;28.90;55.30;;;;;;6158657;23;20036;-76
2022/07/19 00:43:16;;;;;;;6.88;2.33;;;28.90;55.20;;;;;;6185714;23;20131;-76
2022/07/19 00:45:42;;;;;;;4.32;2.28;;;28.90;55.30;;;;;;6184753;23;20071;-77
2022/07/19 00:48:08;;;;;;;5.07;2.00;;;28.90;55.70;;;;;;6185592;23;20008;-76
2022/07/19 00:50:34;;;;;;;2.88;1.83;;;28.80;56.10;;;;;;6158824;23;20005;-76
2022/07/19 00:53:05;;;;;;;4.40;2.30;;;28.80;56.80;;;;;;6184405;23;20383;-77
2022/07/19 00:55:34;;;;;;;3.30;2.00;;;28.80;57.50;;;;;;6183857;23;20005;-78
2022/07/19 00:58:01;;;;;;;3.97;2.10;;;28.80;58.10;;;;;;6184762;23;20029;-76
2022/07/19 01:00:30;;;;;;;4.60;2.70;;;28.80;58.60;;;;;;6185186;23;20001;-77
2022/07/19 01:02:57;;;;;;;3.80;2.50;;;28.80;59.50;;;;;;6185176;23;20420;-76
2022/07/19 01:05:22;;;;;;;3.50;2.70;;;28.70;60.20;;;;;;6184388;23;20213;-76
2022/07/19 01:07:49;;;;;;;5.65;2.33;;;28.70;60.60;;;;;;6185116;23;20459;-76
2022/07/19 01:10:16;;;;;;;5.53;2.40;;;28.60;61.10;;;;;;6185949;23;20281;-77
2022/07/19 01:12:42;;;;;;;4.72;2.33;;;28.60;61.20;;;;;;6185989;23;20009;-77
2022/07/19 01:15:20;;;;;;;5.70;2.60;;;28.60;61.40;;;;;;6184614;23;19997;-77
2022/07/19 01:17:47;;;;;;;4.07;2.72;;;28.50;61.60;;;;;;6185992;23;20104;-77
2022/07/19 01:20:13;;;;;;;4.47;3.15;;;28.50;61.40;;;;;;6185559;23;20024;-77
2022/07/19 01:22:41;;;;;;;4.80;3.00;;;28.50;61.70;;;;;;6185658;23;20005;-77
2022/07/19 01:25:07;;;;;;;3.92;3.03;;;28.50;61.80;;;;;;6184411;23;20005;-77
2022/07/19 01:27:51;;;;;;;6.53;3.05;;;28.40;62.10;;;;;;6185070;23;19997;-77
2022/07/19 01:30:22;;;;;;;5.28;3.15;;;28.40;62.30;;;;;;6184624;23;20074;-74
2022/07/19 01:32:49;;;;;;;4.45;3.00;;;28.40;62.20;;;;;;6185341;23;20012;-75
2022/07/19 01:35:15;;;;;;;5.57;3.40;;;28.40;62.20;;;;;;6184406;23;20005;-75
2022/07/19 01:37:42;;;;;;;4.22;2.63;;;28.40;62.20;;;;;;6184758;23;20000;-75
2022/07/19 01:40:10;;;;;;;4.25;3.28;;;28.30;62.20;;;;;;6185433;23;20081;-75
2022/07/19 01:42:36;;;;;;;4.32;2.67;;;28.20;62.20;;;;;;6184874;23;20001;-75
2022/07/19 01:45:02;;;;;;;3.10;2.65;;;28.20;62.10;;;;;;6185149;23;20141;-75
2022/07/19 01:47:28;;;;;;;3.38;2.65;;;28.20;62.10;;;;;;6185313;23;20419;-75
2022/07/19 01:49:54;;;;;;;5.35;2.90;;;28.20;62.00;;;;;;6185117;23;20076;-75
2022/07/19 01:52:20;;;;;;;5.65;3.08;;;28.20;61.80;;;;;;6185579;23;20016;-75
2022/07/19 01:54:45;;;;;;;4.00;2.80;;;28.20;61.60;;;;;;6185167;23;20327;-75
2022/07/19 01:57:11;;;;;;;5.10;2.30;;;28.10;61.40;;;;;;6185063;23;20009;-75
2022/07/19 01:59:37;;;;;;;5.65;2.78;;;28.00;61.20;;;;;;6184280;23;20032;-75
2022/07/19 02:02:04;;;;;;;4.05;2.67;;;27.90;61.00;;;;;;6158872;23;20033;-75
2022/07/19 02:04:30;;;;;;;3.47;1.98;;;27.90;60.90;;;;;;6184758;23;20001;-75
2022/07/19 02:06:56;;;;;;;3.10;2.20;;;27.90;60.60;;;;;;6184877;23;20385;-76
2022/07/19 02:09:22;;;;;;;3.88;2.08;;;27.90;60.20;;;;;;6184848;23;20015;-76
2022/07/19 02:11:48;;;;;;;3.25;2.30;;;27.90;60.00;;;;;;6185261;23;20005;-75
2022/07/19 02:14:14;;;;;;;5.22;1.92;;;27.90;59.80;;;;;;6184542;23;20012;-74
2022/07/19 02:16:39;;;;;;;3.03;2.30;;;28.00;59.60;;;;;;6185908;23;20001;-74
2022/07/19 02:19:07;;;;;;;2.38;1.92;;;28.00;59.40;;;;;;6184677;23;20441;-75
2022/07/19 02:21:34;;;;;;;2.38;2.03;;;28.00;59.30;;;;;;6185229;23;20012;-75
2022/07/19 02:24:00;;;;;;;3.20;2.03;;;28.00;59.30;;;;;;6183789;23;20008;-75
2022/07/19 02:26:25;;;;;;;2.63;2.03;;;27.90;59.30;;;;;;6185185;23;19997;-75
2022/07/19 02:28:52;;;;;;;7.57;2.22;;;27.90;59.30;;;;;;6159076;23;20012;-76
2022/07/19 02:31:18;;;;;;;2.88;2.05;;;27.90;59.70;;;;;;6184775;23;20005;-77
2022/07/19 02:33:44;;;;;;;2.47;1.88;;;27.90;59.60;;;;;;6184652;23;20458;-77
2022/07/19 02:36:10;;;;;;;5.60;2.35;;;27.90;59.70;;;;;;6184511;23;20059;-77
2022/07/19 02:38:36;;;;;;;3.45;2.30;;;27.90;59.70;;;;;;6184947;23;20020;-77
2022/07/19 02:41:02;;;;;;;4.55;2.72;;;27.90;59.90;;;;;;6184659;23;20573;-77
2022/07/19 02:43:27;;;;;;;3.83;1.83;;;27.90;60.60;;;;;;6183283;23;20005;-76
2022/07/19 02:45:53;;;;;;;2.58;1.70;;;27.90;60.40;;;;;;6183634;23;20324;-76
2022/07/19 02:48:19;;;;;;;2.47;1.90;;;27.80;60.50;;;;;;6185218;23;20424;-76
2022/07/19 02:50:45;;;;;;;7.07;2.13;;;27.90;60.70;;;;;;6184737;23;20027;-77
2022/07/19 02:53:11;;;;;;;3.90;2.35;;;27.80;60.80;;;;;;6184769;23;20301;-77
2022/07/19 02:55:36;;;;;;;4.72;1.90;;;27.80;60.70;;;;;;6157904;23;20016;-77
2022/07/19 02:58:03;;;;;;;3.60;2.05;;;27.80;60.70;;;;;;6184903;23;20005;-76
2022/07/19 03:00:28;;;;;;;6.60;2.53;;;27.80;60.60;;;;;;6185054;23;20001;-76
2022/07/19 03:02:54;;;;;;;4.45;1.90;;;27.80;60.60;;;;;;6184753;23;20097;-77
2022/07/19 03:05:20;;;;;;;3.40;1.67;;;27.70;60.40;;;;;;6184147;23;20400;-77
2022/07/19 03:07:46;;;;;;;4.75;2.05;;;27.60;60.40;;;;;;6184155;23;20009;-77
2022/07/19 03:10:12;;;;;;;1.67;1.30;;;27.60;60.30;;;;;;6185120;23;20020;-77
2022/07/19 03:12:37;;;;;;;6.10;2.28;;;27.60;60.20;;;;;;6184913;23;20431;-77
2022/07/19 03:15:04;;;;;;;1.85;1.50;;;27.70;60.10;;;;;;6184266;23;20008;-77
2022/07/19 03:17:30;;;;;;;5.70;1.85;;;27.70;59.90;;;;;;6158694;23;20005;-77
2022/07/19 03:19:56;;;;;;;3.42;1.90;;;27.70;59.70;;;;;;6184760;23;20506;-77
2022/07/19 03:22:21;;;;;;;2.88;1.75;;;27.70;59.20;;;;;;6186576;23;20020;-76
2022/07/19 03:24:47;;;;;;;2.13;1.45;;;27.70;59.10;;;;;;6185964;23;20051;-77
2022/07/19 03:27:13;;;;;;;3.47;1.70;;;27.70;59.00;;;;;;6186570;23;20005;-77
2022/07/19 03:29:38;;;;;;;2.67;1.77;;;27.70;58.70;;;;;;6186690;23;20001;-77
2022/07/19 03:32:04;;;;;;;1.52;1.38;;;27.70;58.40;;;;;;6186816;23;20001;-76
2022/07/19 03:34:30;;;;;;;4.75;1.55;;;27.70;58.10;;;;;;6186168;23;20005;-77
2022/07/19 03:36:56;;;;;;;1.70;1.27;;;27.70;57.90;;;;;;6186580;23;20009;-77
2022/07/19 03:39:22;;;;;;;2.47;1.30;;;27.70;57.70;;;;;;6185897;23;20005;-77
2022/07/19 03:41:47;;;;;;;2.53;0.95;;;27.70;57.40;;;;;;6186304;23;20024;-77
2022/07/19 03:44:13;;;;;;;2.33;1.30;;;27.70;57.20;;;;;;6186006;23;20067;-76
2022/07/19 03:46:39;;;;;;;4.07;1.35;;;27.70;56.90;;;;;;6160336;23;20039;-76
2022/07/19 03:49:04;;;;;;;3.25;1.40;;;27.70;56.80;;;;;;6186195;23;20009;-76
2022/07/19 03:51:30;;;;;;;1.90;1.20;;;27.70;56.70;;;;;;6186587;23;20001;-76
2022/07/19 03:53:56;;;;;;;2.65;1.65;;;27.70;56.30;;;;;;6185940;23;20005;-75
2022/07/19 03:56:22;;;;;;;1.92;1.13;;;27.70;55.90;;;;;;6186280;23;20324;-76
2022/07/19 03:58:48;;;;;;;3.38;1.65;;;27.70;55.80;;;;;;6186174;23;20032;-76
2022/07/19 04:01:15;;;;;;;1.92;1.30;;;27.70;55.70;;;;;;6186235;23;20289;-76
2022/07/19 04:03:41;;;;;;;2.80;1.50;;;27.70;55.00;;;;;;6185875;23;20032;-75
2022/07/19 04:06:09;;;;;;;2.55;1.48;;;27.70;54.20;;;;;;6185899;23;20126;-75
2022/07/19 04:08:36;;;;;;;2.33;1.58;;;27.70;54.30;;;;;;6186426;23;20020;-75
2022/07/19 04:11:03;;;;;;;3.33;1.20;;;27.70;53.90;;;;;;6185620;23;20312;-74
2022/07/19 04:13:31;;;;;;;1.38;1.00;;;27.70;53.80;;;;;;6185748;23;20008;-75
2022/07/19 04:15:58;;;;;;;2.05;1.10;;;27.70;53.40;;;;;;6185703;23;20001;-73
2022/07/19 04:18:24;;;;;;;1.95;1.48;;;27.70;53.10;;;;;;6186027;23;20088;-74
2022/07/19 04:20:49;;;;;;;3.63;1.30;;;27.70;52.60;;;;;;6186136;23;20024;-74
2022/07/19 04:23:15;;;;;;;1.63;1.23;;;27.70;52.00;;;;;;6185670;23;20372;-73
2022/07/19 04:25:41;;;;;;;2.65;1.67;;;27.70;51.70;;;;;;6186016;23;20005;-74
2022/07/19 04:28:07;;;;;;;4.22;1.30;;;27.60;51.20;;;;;;6185023;23;20001;-74
2022/07/19 04:30:33;;;;;;;1.85;0.93;;;27.60;51.20;;;;;;6185531;23;20419;-73
2022/07/19 04:33:00;;;;;;;2.40;1.05;;;27.70;51.10;;;;;;6184950;23;20007;-74
2022/07/19 04:35:25;;;;;;;3.03;1.20;;;27.70;51.10;;;;;;6185297;23;20005;-74
2022/07/19 04:37:51;;;;;;;1.70;1.17;;;27.70;50.80;;;;;;6158610;23;20424;-73
2022/07/19 04:40:17;;;;;;;1.10;0.98;;;27.70;50.60;;;;;;6185960;23;20001;-73
2022/07/19 04:42:43;;;;;;;1.70;1.38;;;27.80;50.50;;;;;;6185352;23;20021;-73
2022/07/19 04:45:09;;;;;;;2.17;1.08;;;27.80;50.20;;;;;;6185298;23;19997;-74
2022/07/19 04:47:34;;;;;;;1.35;1.20;;;27.80;50.30;;;;;;6185151;23;20004;-75
2022/07/19 04:50:00;;;;;;;2.03;1.40;;;27.80;50.30;;;;;;6185650;23;20004;-75
2022/07/19 04:52:27;;;;;;;5.47;1.73;;;27.70;49.80;;;;;;6184701;23;20011;-74
2022/07/19 04:54:52;;;;;;;2.30;1.02;;;27.80;49.90;;;;;;6186158;23;20012;-75
2022/07/19 04:57:18;;;;;;;1.50;1.40;;;27.80;50.00;;;;;;6158732;23;20013;-74
2022/07/19 04:59:44;;;;;;;3.53;1.67;;;27.80;50.10;;;;;;6185378;23;20001;-74
2022/07/19 05:02:09;;;;;;;2.90;1.20;;;27.80;50.00;;;;;;6185743;23;20001;-76
2022/07/19 05:04:35;;;;;;;2.03;1.33;;;27.80;49.80;;;;;;6185059;23;20005;-74
2022/07/19 05:07:03;;;;;;;2.28;1.40;;;27.80;49.80;;;;;;6185296;23;19998;-74
2022/07/19 05:09:29;;;;;;;2.67;1.52;;;27.80;49.80;;;;;;6185579;23;20012;-74
2022/07/19 05:11:56;;;;;;;1.55;1.17;;;27.80;49.70;;;;;;6182189;23;20088;-74
2022/07/19 05:14:22;;;;;;;4.35;1.20;;;27.80;49.70;;;;;;6184741;23;20013;-74
2022/07/19 05:16:49;;;;;;;2.83;1.38;;;27.70;49.80;;;;;;6186245;23;20466;-73
2022/07/19 05:19:16;;;;;;;3.33;1.77;;;27.70;49.80;;;;;;6185085;23;20415;-76
2022/07/19 05:21:42;;;;;;;2.03;1.30;;;27.70;50.10;;;;;;6185556;23;20025;-76
2022/07/19 05:24:08;;;;;;;1.88;1.48;;;27.70;50.10;;;;;;6184707;23;20005;-78
2022/07/19 05:26:35;;;;;;;3.47;1.80;;;27.70;50.20;;;;;;6185865;23;20008;-77
2022/07/19 05:29:01;;;;;;;3.17;1.95;;;27.70;50.20;;;;;;6185559;23;20048;-80
2022/07/19 05:31:27;;;;;;;5.40;1.80;;;27.80;50.30;;;;;;6186022;23;20076;-75
2022/07/19 05:33:52;;;;;;;3.60;1.63;;;27.80;50.20;;;;;;6158231;23;20040;-78
2022/07/19 05:36:18;;;;;;;3.25;1.48;;;27.80;50.20;;;;;;6185092;23;20426;-77
2022/07/19 05:38:44;;;;;;;1.85;1.23;;;27.80;50.40;;;;;;6184480;23;20442;-74
2022/07/19 05:41:10;;;;;;;2.78;1.23;;;27.80;50.20;;;;;;6185882;23;20032;-77
2022/07/19 05:43:37;;;;;;;1.40;1.30;;;27.90;50.40;;;;;;6184292;23;20001;-77
2022/07/19 05:46:04;;;;;;;4.32;1.63;;;27.90;50.30;;;;;;6185815;23;20001;-77
2022/07/19 05:48:31;;;;;;;1.30;1.20;;;27.90;50.60;;;;;;6185213;23;20013;-77
2022/07/19 05:50:58;;;;;;;3.80;1.95;;;27.90;50.20;;;;;;6157488;23;20008;-78
2022/07/19 05:53:24;;;;;;;3.15;1.90;;;27.90;49.90;;;;;;6182986;23;20005;-78
2022/07/19 05:55:50;;;;;;;2.90;1.70;;;27.90;49.70;;;;;;6184387;23;20024;-77
2022/07/19 05:58:17;;;;;;;4.15;1.52;;;27.90;49.70;;;;;;6185774;23;20001;-77
2022/07/19 06:03:31;;;;;;;3.95;1.85;;;28.00;50.90;;;;;;6184460;23;20024;-76
2022/07/19 06:05:56;;;;;;;3.88;1.42;;;28.00;50.40;;;;;;6185460;23;19997;-75
2022/07/19 06:08:22;;;;;;;5.75;1.58;;;28.00;50.20;;;;;;6158670;23;20458;-75
2022/07/19 06:10:48;;;;;;;3.72;1.70;;;28.10;50.30;;;;;;6185803;23;20005;-75
2022/07/19 06:13:14;;;;;;;7.15;2.47;;;28.00;49.30;;;;;;6185269;23;20013;-77
2022/07/19 06:15:40;;;;;;;3.33;2.05;;;28.00;49.40;;;;;;6185153;23;20088;-77
2022/07/19 06:18:05;;;;;;;2.00;1.45;;;28.10;49.10;;;;;;6185411;23;20088;-77
2022/07/19 06:20:32;;;;;;;2.80;1.73;;;28.00;49.40;;;;;;6184889;23;20422;-77
2022/07/19 06:22:58;;;;;;;3.92;1.42;;;28.10;49.60;;;;;;6185320;23;20419;-77
2022/07/19 06:25:23;;;;;;;3.53;1.67;;;28.20;50.10;;;;;;6184866;23;20017;-77
2022/07/19 06:27:49;;;;;;;2.70;1.70;;;28.20;50.20;;;;;;6185427;23;19997;-77
2022/07/19 06:30:15;;;;;;;7.45;2.42;;;28.20;49.80;;;;;;6185393;23;20404;-77
2022/07/19 06:32:40;;;;;;;4.97;1.75;;;28.30;49.00;;;;;;6158479;23;20059;-77
2022/07/19 06:35:06;;;;;;;3.17;1.63;;;28.30;49.30;;;;;;6185111;23;20029;-78
2022/07/19 06:37:32;;;;;;;2.40;1.30;;;28.30;49.10;;;;;;6185659;23;20009;-77
2022/07/19 06:39:58;;;;;;;3.92;1.50;;;28.40;48.80;;;;;;6185234;23;20308;-78
2022/07/19 06:42:24;;;;;;;1.60;1.50;;;28.40;48.70;;;;;;6185360;23;20498;-78
2022/07/19 06:44:49;;;;;;;2.17;1.33;;;28.40;48.90;;;;;;6183784;23;20012;-77
2022/07/19 06:47:15;;;;;;;2.88;1.40;;;28.50;48.90;;;;;;6183629;23;20001;-77
2022/07/19 06:49:41;;;;;;;5.18;1.25;;;28.50;49.40;;;;;;6184738;23;20001;-78
2022/07/19 06:52:06;;;;;;;1.42;1.25;;;28.50;48.70;;;;;;6185499;23;20001;-78
2022/07/19 06:54:32;;;;;;;2.58;1.50;;;28.50;48.60;;;;;;6184129;23;20013;-78
2022/07/19 06:56:58;;;;;;;2.22;1.55;;;28.50;48.10;;;;;;6186318;23;20001;-78
2022/07/19 06:59:23;;;;;;;1.30;1.13;;;28.60;48.00;;;;;;6187723;23;20008;-78
2022/07/19 07:01:49;;;;;;;1.05;0.95;;;28.60;48.10;;;;;;6185912;23;20428;-79
2022/07/19 07:04:15;;;;;;;5.78;1.20;;;28.70;47.30;;;;;;6186301;23;20076;-77
2022/07/19 07:06:41;;;;;;;3.88;1.33;;;28.70;47.10;;;;;;6186242;23;20408;-79
2022/07/19 07:09:06;;;;;;;3.45;1.42;;;28.70;47.00;;;;;;6187267;23;20420;-79
2022/07/19 07:11:32;;;;;;;5.18;1.40;;;28.80;46.60;;;;;;6187630;23;20009;-79
2022/07/19 07:13:58;;;;;;;3.88;1.30;;;28.90;46.50;;;;;;6187657;23;20001;-79
2022/07/19 07:16:23;;;;;;;4.53;1.48;;;28.90;46.30;;;;;;6186764;23;20001;-78
2022/07/19 07:18:49;;;;;;;1.83;1.20;;;28.90;45.90;;;;;;6187036;23;20005;-78
2022/07/19 07:21:15;;;;;;;2.15;1.38;;;29.00;45.70;;;;;;6186790;23;20029;-78
2022/07/19 07:23:40;;;;;;;2.03;1.30;;;29.00;45.60;;;;;;6183279;23;20052;-78
2022/07/19 07:26:06;;;;;;;1.40;0.98;;;29.10;45.40;;;;;;6154560;23;20005;-78
2022/07/19 07:28:32;;;;;;;1.42;0.98;;;29.10;45.20;;;;;;6182136;23;20320;-78
2022/07/19 07:30:58;;;;;;;2.67;1.50;;;29.10;45.10;;;;;;6185061;23;20451;-78
2022/07/19 07:33:23;;;;;;;3.78;1.42;;;29.20;44.70;;;;;;6185006;23;20636;-80
2022/07/19 07:35:49;;;;;;;7.20;1.42;;;29.20;44.80;;;;;;6184927;23;20001;-79
2022/07/19 07:38:15;;;;;;;1.45;1.05;;;29.30;43.20;;;;;;6158775;23;20041;-78
2022/07/19 07:40:41;;;;;;;3.33;1.08;;;29.30;43.80;;;;;;6185999;23;20001;-78
2022/07/19 07:43:06;;;;;;;2.88;1.48;;;29.40;43.90;;;;;;6186142;23;20311;-80
2022/07/19 07:45:32;;;;;;;7.13;1.50;;;29.50;44.10;;;;;;6185086;23;20076;-77
2022/07/19 07:47:59;;;;;;;1.63;1.17;;;29.50;43.60;;;;;;6185398;23;20002;-78
2022/07/19 07:50:25;;;;;;;3.08;1.40;;;29.50;43.30;;;;;;6185214;23;20008;-79
2022/07/19 07:52:50;;;;;;;2.13;0.93;;;29.60;43.70;;;;;;6185573;23;20001;-79
2022/07/19 07:55:16;;;;;;;2.75;0.75;;;29.70;43.60;;;;;;6185501;23;20412;-79
2022/07/19 07:57:43;;;;;;;4.60;1.15;;;29.70;43.20;;;;;;6185907;23;20012;-78
2022/07/19 08:00:12;;;;;;;1.98;0.98;;;29.80;43.10;;;;;;6185486;23;20404;-78
2022/07/19 08:02:42;;;;;;;3.70;0.80;;;29.90;43.10;;;;;;6185836;23;20016;-78
2022/07/19 08:05:08;;;;;;;3.17;1.25;;;29.90;43.10;;;;;;6185267;23;19997;-78
2022/07/19 08:07:34;;;;;;;2.30;1.05;;;29.90;42.10;;;;;;6184548;23;20013;-79
2022/07/19 08:10:01;;;;;;;3.42;1.42;;;30.00;42.70;;;;;;6185765;23;20120;-78
2022/07/19 08:12:27;;;;;;;1.42;1.20;;;30.10;42.70;;;;;;6185754;23;20428;-78
2022/07/19 08:14:53;;;;;;;2.45;1.10;;;30.10;42.20;;;;;;6185800;23;20055;-76
2022/07/19 08:17:18;;;;;;;2.67;1.00;;;30.10;42.00;;;;;;6185923;23;20327;-76
2022/07/19 08:19:44;;;;;;;1.10;1.00;;;30.20;42.10;;;;;;6183333;23;20005;-78
2022/07/19 08:22:13;;;;;;;2.38;1.05;;;30.20;42.30;;;;;;6185193;23;20076;-78
2022/07/19 08:24:39;;;;;;;2.75;1.10;;;30.30;42.40;;;;;;6186081;23;20007;-78
2022/07/19 08:27:05;;;;;;;2.50;1.00;;;30.40;42.40;;;;;;6159247;23;20088;-79
2022/07/19 08:29:31;;;;;;;2.95;1.23;;;30.50;42.20;;;;;;6158602;23;20005;-78
2022/07/19 08:31:57;;;;;;;2.80;1.02;;;30.60;41.20;;;;;;6185509;23;20084;-78
2022/07/19 08:34:23;;;;;;;2.88;1.00;;;30.60;41.10;;;;;;6185737;23;20091;-78
2022/07/19 08:36:49;;;;;;;2.08;0.80;;;30.60;39.90;;;;;;6159275;23;20438;-78
2022/07/19 08:39:15;;;;;;;1.85;1.05;;;30.60;40.30;;;;;;6184704;23;20033;-78
2022/07/19 08:41:44;;;;;;;7.28;1.13;;;30.70;40.40;;;;;;6185046;23;20005;-78
2022/07/19 08:44:11;;;;;;;1.92;0.63;;;30.80;40.20;;;;;;6158954;23;20009;-78
2022/07/19 08:46:38;;;;;;;1.30;0.82;;;30.80;40.50;;;;;;6159017;23;20005;-78
2022/07/19 08:49:04;;;;;;;2.22;0.98;;;30.90;40.20;;;;;;6157985;23;20012;-78
2022/07/19 08:51:31;;;;;;;2.78;1.00;;;31.00;40.30;;;;;;6185002;23;20027;-78
2022/07/19 08:53:57;;;;;;;4.35;1.20;;;31.00;39.00;;;;;;6185252;23;20012;-78
2022/07/19 08:59:07;;;;;;;0.85;0.70;;;31.20;39.00;;;;;;6184538;23;20019;-78
2022/07/19 09:01:33;;;;;;;1.75;0.95;;;31.20;38.10;;;;;;6185141;23;20012;-78
2022/07/19 09:04:07;;;;;;;1.80;1.10;;;31.30;38.40;;;;;;6186299;23;20431;-78
2022/07/19 09:06:42;;;;;;;2.72;0.90;;;31.40;38.00;;;;;;6186116;23;20001;-78
2022/07/19 09:09:09;;;;;;;1.73;1.17;;;31.40;37.60;;;;;;6185937;23;20024;-78
2022/07/19 09:11:36;;;;;;;2.28;0.95;;;31.40;37.50;;;;;;6185953;23;20010;-79
2022/07/19 09:14:09;;;;;;;1.38;0.80;;;31.50;37.60;;;;;;6185998;23;20005;-79
2022/07/19 09:16:51;;;;;;;1.25;0.77;;;31.50;37.50;;;;;;6186220;23;20004;-79
2022/07/19 09:19:17;;;;;;;2.97;0.70;;;31.60;38.10;;;;;;6185040;23;20419;-78
2022/07/19 09:22:02;;;;;;;2.92;0.70;;;31.60;38.50;;;;;;6186264;23;19997;-79
2022/07/19 09:24:31;;;;;;;5.53;0.70;;;31.70;38.50;;;;;;6186343;23;20119;-78
2022/07/19 09:27:08;;;;;;;2.20;1.20;;;31.70;37.30;;;;;;6185676;23;20001;-78
2022/07/19 09:29:36;;;;;;;1.20;0.75;;;31.70;38.20;;;;;;6184255;23;20002;-78
2022/07/19 09:32:06;;;;;;;1.42;0.90;;;31.90;38.70;;;;;;6183675;23;20009;-79
2022/07/19 09:34:37;;;;;;;1.65;1.00;;;31.90;38.70;;;;;;6183706;23;20005;-80
2022/07/19 09:37:14;;;;;;;1.50;1.05;;;32.00;38.90;;;;;;6184756;23;20032;-80
2022/07/19 09:39:44;;;;;;;4.45;1.35;;;32.10;38.80;;;;;;6184412;23;20027;-80
2022/07/19 09:42:14;;;;;;;;;;;32.10;37.50;;;;;;6185234;23;20447;-79
2022/07/19 09:44:40;;;;;;;4.03;1.10;;;32.10;38.10;;;;;;6184630;23;20307;-78
2022/07/19 09:47:07;;;;;;;1.17;0.90;;;32.20;39.20;;;;;;6184355;23;19997;-76
2022/07/19 09:49:32;;;;;;;8.02;1.63;;;32.20;38.60;;;;;;6183825;23;20005;-76
2022/07/19 09:51:58;;;;;;;3.55;0.90;;;32.20;36.40;;;;;;6184562;23;20027;-77
2022/07/19 09:54:28;;;;;;;2.00;0.80;;;32.20;37.30;;;;;;6184001;23;20004;-76
2022/07/19 09:56:55;;;;;;;1.58;0.85;;;32.20;37.50;;;;;;6183893;23;20076;-76
2022/07/19 09:59:23;;;;;;;1.00;0.80;;;32.30;37.40;;;;;;6157484;23;20031;-76
2022/07/19 10:01:51;;;;;;;1.02;0.80;;;32.40;38.20;;;;;;6184243;23;20005;-77
2022/07/19 10:04:20;;;;;;;4.18;1.17;;;32.50;37.70;;;;;;6157957;23;20316;-80
2022/07/19 10:06:48;;;;;;;3.38;1.13;;;32.50;37.50;;;;;;6158024;23;20016;-79
2022/07/19 10:09:16;;;;;;;1.40;1.08;;;32.60;37.90;;;;;;6184797;23;20009;-78
2022/07/19 10:11:42;;;;;;;2.67;1.20;;;32.80;37.20;;;;;;6156961;23;20499;-79
2022/07/19 10:14:08;;;;;;;7.18;1.50;;;32.80;37.70;;;;;;6184650;23;20012;-79
2022/07/19 10:17:02;;;;;;;1.25;0.80;;;32.90;36.50;;;;;;6184690;23;20403;-78
2022/07/19 10:19:41;;;;;;;1.70;1.10;;;32.90;37.00;;;;;;6184429;23;20012;-78
2022/07/19 10:22:11;;;;;;;2.57;0.70;;;33.10;36.40;;;;;;6185570;23;20301;-78
2022/07/19 10:24:56;;;;;;;;;;;33.20;37.10;;;;;;6185849;23;20055;-78
2022/07/19 10:27:24;;;;;;;0.95;0.88;;;33.30;36.70;;;;;;6185630;23;19900;-78
2022/07/19 10:29:51;;;;;;;1.60;0.70;;;33.30;37.10;;;;;;6184709;23;20039;-78
2022/07/19 10:32:17;;;;;;;2.13;1.10;;;33.40;37.40;;;;;;6184856;23;20391;-78
2022/07/19 10:34:47;;;;;;;1.30;1.00;;;33.50;36.70;;;;;;6184631;23;20424;-78
2022/07/19 10:37:12;;;;;;;2.17;0.90;;;33.60;36.90;;;;;;6185074;23;20088;-78
2022/07/19 10:39:40;;;;;;;2.35;1.25;;;33.70;33.90;;;;;;6196176;22;20090;-77
2022/07/19 10:42:09;;;;;;;0.75;0.68;;;33.80;35.40;;;;;;6215000;23;20351;-77
2022/07/19 10:45:01;;;;;;;1.52;0.88;;;33.90;35.80;;;;;;6214586;23;20004;-78
2022/07/19 10:47:39;;;;;;;1.20;1.00;;;34.10;35.20;;;;;;6214751;23;20051;-77
2022/07/19 10:50:06;;;;;;;6.20;1.60;;;34.20;34.20;;;;;;6215162;23;20055;-77
2022/07/19 10:52:34;;;;;;;1.33;0.80;;;34.30;35.00;;;;;;6215611;23;20107;-77
2022/07/19 10:55:23;;;;;;;1.80;0.77;;;34.40;35.20;;;;;;6214569;23;20050;-77
2022/07/19 10:58:06;;;;;;;1.85;1.08;;;34.50;35.20;;;;;;6215060;23;20027;-77
2022/07/19 11:00:44;;;;;;;1.38;0.88;;;34.70;35.50;;;;;;6214964;23;20427;-77
2022/07/19 11:03:25;;;;;;;1.90;1.05;;;34.90;35.60;;;;;;6215589;23;19997;-77
2022/07/19 11:05:58;;;;;;;1.30;0.80;;;35.00;36.20;;;;;;6215633;23;20415;-77
2022/07/19 11:08:34;;;;;;;1.95;1.00;;;35.10;35.90;;;;;;6215454;23;20007;-77
2022/07/19 11:11:09;;;;;;;3.33;0.77;;;35.20;34.00;;;;;;6215683;23;20000;-77
2022/07/19 11:13:36;;;;;;;1.10;0.98;;;35.20;35.50;;;;;;6188256;23;20009;-77
2022/07/19 11:16:02;;;;;;;2.17;0.88;;;35.30;35.60;;;;;;6215484;23;20445;-77
2022/07/19 11:18:29;;;;;;;1.55;1.02;;;35.40;35.50;;;;;;6215006;23;20055;-79
2022/07/19 11:21:03;;;;;;;3.00;1.40;;;35.60;36.00;;;;;;6214796;23;20000;-78
2022/07/19 11:23:32;;;;;;;2.35;1.10;;;35.70;34.90;;;;;;6215066;23;20032;-77
2022/07/19 11:26:17;;;;;;;2.92;1.27;;;35.80;35.50;;;;;;6184126;23;20009;-78
2022/07/19 11:28:44;;;;;;;7.88;1.50;;;36.00;35.40;;;;;;6212063;23;20059;-78
2022/07/19 11:31:16;;;;;;;2.47;1.23;;;36.30;35.60;;;;;;6211827;23;20323;-78
2022/07/19 11:33:44;;;;;;;4.55;0.93;;;36.40;35.30;;;;;;6211408;23;20004;-78
2022/07/19 11:36:10;;;;;;;4.28;1.40;;;36.60;35.30;;;;;;6211909;23;20334;-78
2022/07/19 11:38:45;;;;;;;2.03;0.93;;;36.90;35.20;;;;;;6212276;23;20097;-78
2022/07/19 11:41:15;;;;;;;2.53;1.10;;;37.20;34.40;;;;;;6212383;23;20775;-78
2022/07/19 11:43:41;;;;;;;5.00;1.55;;;37.50;34.40;;;;;;6212822;23;20052;-78
2022/07/19 11:46:07;;;;;;;2.13;0.95;;;37.80;31.40;;;;;;6213778;23;20001;-78
2022/07/19 11:48:33;;;;;;;4.20;1.70;;;38.10;33.20;;;;;;6213211;23;20001;-78
2022/07/19 11:51:04;;;;;;;2.03;0.93;;;38.40;33.50;;;;;;6213567;23;20005;-78
2022/07/19 11:53:31;;;;;;;1.85;0.85;;;38.60;33.20;;;;;;6212919;23;20005;-78
2022/07/19 11:55:58;;;;;;;4.80;1.45;;;38.80;32.80;;;;;;6213098;23;20058;-78
2022/07/19 11:58:24;;;;;;;2.15;1.08;;;39.10;32.80;;;;;;6213128;23;20008;-77
2022/07/19 12:00:50;;;;;;;2.20;0.98;;;39.30;32.30;;;;;;6213046;23;20442;-77
2022/07/19 12:03:18;;;;;;;2.75;1.20;;;39.50;32.10;;;;;;6213373;23;20058;-77
2022/07/19 12:05:57;;;;;;;2.05;0.95;;;39.70;32.60;;;;;;6213733;23;20383;-77
2022/07/19 12:08:35;;;;;;;3.17;1.30;;;39.80;31.40;;;;;;6213641;23;20032;-77
2022/07/19 12:11:14;;;;;;;5.03;1.10;;;39.90;31.60;;;;;;6213572;23;20016;-77
2022/07/19 12:13:39;;;;;;;2.17;1.27;;;40.00;32.10;;;;;;6213066;23;20009;-77
2022/07/19 12:16:10;;;;;;;2.65;1.10;;;40.20;32.00;;;;;;6212944;23;20312;-78
2022/07/19 12:18:47;;;;;;;3.45;1.20;;;40.20;31.30;;;;;;6212240;23;20435;-78
2022/07/19 12:21:21;;;;;;;3.58;1.40;;;40.20;31.20;;;;;;6212005;23;20004;-78
2022/07/19 12:24:08;;;;;;;2.78;1.20;;;40.10;29.50;;;;;;6210637;23;20059;-78
2022/07/19 12:26:34;;;;;;;2.38;1.35;;;40.20;30.10;;;;;;6213252;23;20004;-78
2022/07/19 12:29:00;;;;;;;4.20;1.30;;;40.20;31.30;;;;;;6212270;23;20014;-80
2022/07/19 12:31:26;;;;;;;1.88;1.00;;;40.30;31.00;;;;;;6206092;23;20008;-79
2022/07/19 12:34:00;;;;;;;2.45;1.13;;;40.50;31.10;;;;;;6212948;23;20032;-80
2022/07/19 12:36:34;;;;;;;2.63;0.90;;;40.50;30.80;;;;;;6212771;23;20075;-79
2022/07/19 12:38:59;;;;;;;1.25;1.10;;;40.70;30.50;;;;;;6215085;23;20023;-79
2022/07/19 12:41:25;;;;;;;3.80;1.10;;;40.80;31.00;;;;;;6215514;23;20036;-79
2022/07/19 12:43:51;;;;;;;4.55;1.05;;;40.90;30.30;;;;;;6188135;23;20001;-80
2022/07/19 12:46:17;;;;;;;2.08;1.40;;;41.00;30.00;;;;;;6214973;23;20005;-80
2022/07/19 12:48:42;;;;;;;1.25;0.85;;;41.00;30.40;;;;;;6214941;23;20001;-79
2022/07/19 12:51:08;;;;;;;3.85;1.10;;;41.20;30.60;;;;;;6214231;23;20019;-79
2022/07/19 12:53:35;;;;;;;2.83;1.10;;;41.20;30.80;;;;;;6214841;23;20001;-79
2022/07/19 12:56:01;;;;;;;1.83;1.20;;;41.30;31.10;;;;;;6215387;23;20043;-78